createdAt,value
2022-12-20T00:00:39.787Z,0.51
2022-12-20T00:01:29.851Z,0.52
2022-12-20T00:02:19.905Z,0.56
2022-12-20T00:03:09.791Z,0.56
2022-12-20T00:03:59.778Z,0.56
2022-12-20T00:04:49.764Z,0.56
2022-12-20T00:05:39.745Z,0.56
2022-12-20T00:06:29.739Z,0.57
2022-12-20T00:07:19.745Z,0.59
2022-12-20T00:08:09.706Z,0.60
2022-12-20T00:08:59.719Z,0.59
2022-12-20T00:09:49.701Z,0.60
2022-12-20T00:10:39.688Z,0.60
2022-12-20T00:11:29.668Z,0.57
2022-12-20T00:12:19.666Z,0.53
2022-12-20T00:13:09.659Z,0.51
2022-12-20T00:13:59.694Z,0.49
2022-12-20T00:14:49.650Z,0.49
2022-12-20T00:15:39.651Z,0.45
2022-12-20T00:16:29.611Z,0.48
2022-12-20T00:17:19.666Z,0.45
2022-12-20T00:18:09.723Z,0.48
2022-12-20T00:18:59.604Z,0.51
2022-12-20T00:19:49.629Z,0.52
2022-12-20T00:20:39.571Z,0.53
2022-12-20T00:21:29.569Z,0.53
2022-12-20T00:22:19.591Z,0.56
2022-12-20T00:23:09.543Z,0.53
2022-12-20T00:23:59.547Z,0.56
2022-12-20T00:24:49.518Z,0.56
2022-12-20T00:25:39.516Z,0.57
2022-12-20T00:26:29.500Z,0.57
2022-12-20T00:27:19.494Z,0.59
2022-12-20T00:28:09.485Z,0.59
2022-12-20T00:28:59.518Z,0.59
2022-12-20T00:29:49.474Z,0.60
2022-12-20T00:30:39.453Z,0.60
2022-12-20T00:31:29.499Z,0.62
2022-12-20T00:32:19.442Z,0.62
2022-12-20T00:33:09.428Z,0.63
2022-12-20T00:33:59.424Z,0.62
2022-12-20T00:34:49.402Z,0.62
2022-12-20T00:35:39.418Z,0.62
2022-12-20T00:36:29.403Z,0.62
2022-12-20T00:37:19.379Z,0.59
2022-12-20T00:38:09.382Z,0.59
2022-12-20T00:38:59.422Z,0.59
2022-12-20T00:39:49.369Z,0.57
2022-12-20T00:40:39.369Z,0.56
2022-12-20T00:41:29.341Z,0.57
2022-12-20T00:42:19.359Z,0.53
2022-12-20T00:43:09.310Z,0.56
2022-12-20T00:43:59.372Z,0.56
2022-12-20T00:44:49.301Z,0.59
2022-12-20T00:45:39.307Z,0.60
2022-12-20T00:46:29.372Z,0.62
2022-12-20T00:47:19.383Z,0.62
2022-12-20T00:48:09.256Z,0.63
2022-12-20T00:48:59.268Z,0.63
2022-12-20T00:49:49.259Z,0.63
2022-12-20T00:50:39.247Z,0.67
2022-12-20T00:51:29.269Z,0.67
2022-12-20T00:52:19.221Z,0.67
2022-12-20T00:53:09.205Z,0.68
2022-12-20T00:53:59.282Z,0.68
2022-12-20T00:54:49.212Z,0.70
2022-12-20T00:55:39.189Z,0.71
2022-12-20T00:56:29.174Z,0.71
2022-12-20T00:57:19.157Z,0.67
2022-12-20T00:58:09.164Z,0.64
2022-12-20T00:58:59.165Z,0.60
2022-12-20T00:59:49.145Z,0.59
2022-12-20T01:00:39.202Z,0.57
2022-12-20T01:01:29.274Z,0.57
2022-12-20T01:02:19.320Z,0.59
2022-12-20T01:03:09.213Z,0.57
2022-12-20T01:03:59.092Z,0.59
2022-12-20T01:04:49.102Z,0.62
2022-12-20T01:05:39.076Z,0.60
2022-12-20T01:06:29.056Z,0.62
2022-12-20T01:07:19.077Z,0.63
2022-12-20T01:08:09.041Z,0.63
2022-12-20T01:08:59.051Z,0.62
2022-12-20T01:09:49.027Z,0.63
2022-12-20T01:10:39.025Z,0.64
2022-12-20T01:11:29.011Z,0.68
2022-12-20T01:12:19.026Z,0.68
2022-12-20T01:13:08.982Z,0.70
2022-12-20T01:13:58.981Z,0.70
2022-12-20T01:14:48.976Z,0.71
2022-12-20T01:15:38.963Z,0.71
2022-12-20T01:16:29.008Z,0.70
2022-12-20T01:17:18.945Z,0.68
2022-12-20T01:18:08.920Z,0.68
2022-12-20T01:18:58.938Z,0.67
2022-12-20T01:19:48.910Z,0.64
2022-12-20T01:20:38.918Z,0.63
2022-12-20T01:21:28.903Z,0.64
2022-12-20T01:22:18.892Z,0.63
2022-12-20T01:23:08.881Z,0.63
2022-12-20T01:23:58.903Z,0.63
2022-12-20T01:24:48.871Z,0.64
2022-12-20T01:25:38.853Z,0.62
2022-12-20T01:26:28.979Z,0.60
2022-12-20T01:27:18.886Z,0.60
2022-12-20T01:28:08.828Z,0.60
2022-12-20T01:28:58.827Z,0.60
2022-12-20T01:29:48.818Z,0.60
2022-12-20T01:30:38.798Z,0.62
2022-12-20T01:31:28.835Z,0.63
2022-12-20T01:32:18.943Z,0.62
2022-12-20T01:33:08.789Z,0.64
2022-12-20T01:33:58.781Z,0.67
2022-12-20T01:34:48.747Z,0.67
2022-12-20T01:35:38.738Z,0.67
2022-12-20T01:36:28.744Z,0.64
2022-12-20T01:37:18.719Z,0.64
2022-12-20T01:38:08.712Z,0.64
2022-12-20T01:38:58.711Z,0.64
2022-12-20T01:39:48.707Z,0.64
2022-12-20T01:40:38.686Z,0.64
2022-12-20T01:41:28.692Z,0.68
2022-12-20T01:42:18.679Z,0.68
2022-12-20T01:43:08.654Z,0.70
2022-12-20T01:43:58.664Z,0.70
2022-12-20T01:44:48.650Z,0.72
2022-12-20T01:45:38.676Z,0.71
2022-12-20T01:46:28.723Z,0.71
2022-12-20T01:47:18.616Z,0.71
2022-12-20T01:48:08.596Z,0.70
2022-12-20T01:48:58.593Z,0.71
2022-12-20T01:49:48.602Z,0.72
2022-12-20T01:50:38.575Z,0.72
2022-12-20T01:51:28.609Z,0.72
2022-12-20T01:52:18.578Z,0.72
2022-12-20T01:53:08.543Z,0.74
2022-12-20T01:53:58.552Z,0.75
2022-12-20T01:54:48.534Z,0.75
2022-12-20T01:55:38.520Z,0.77
2022-12-20T01:56:28.500Z,0.77
2022-12-20T01:57:18.502Z,0.78
2022-12-20T01:58:08.480Z,0.75
2022-12-20T01:58:58.484Z,0.77
2022-12-20T01:59:48.488Z,0.77
2022-12-20T02:00:38.472Z,0.75
2022-12-20T02:01:28.531Z,0.74
2022-12-20T02:02:18.628Z,0.77
2022-12-20T02:03:08.648Z,0.78
2022-12-20T02:03:58.437Z,0.77
2022-12-20T02:04:48.427Z,0.77
2022-12-20T02:05:38.438Z,0.77
2022-12-20T02:06:28.402Z,0.75
2022-12-20T02:07:18.402Z,0.77
2022-12-20T02:08:08.376Z,0.75
2022-12-20T02:08:58.388Z,0.77
2022-12-20T02:09:48.382Z,0.77
2022-12-20T02:10:38.381Z,0.80
2022-12-20T02:11:28.340Z,0.80
2022-12-20T02:12:18.338Z,0.81
2022-12-20T02:13:08.338Z,0.81
2022-12-20T02:13:58.331Z,0.80
2022-12-20T02:14:48.319Z,0.80
2022-12-20T02:15:38.299Z,0.80
2022-12-20T02:16:28.313Z,0.81
2022-12-20T02:17:18.285Z,0.81
2022-12-20T02:18:08.255Z,0.81
2022-12-20T02:18:58.262Z,0.81
2022-12-20T02:19:48.260Z,0.82
2022-12-20T02:20:38.250Z,0.82
2022-12-20T02:21:28.241Z,0.82
2022-12-20T02:22:18.234Z,0.82
2022-12-20T02:23:08.227Z,0.82
2022-12-20T02:23:58.215Z,0.81
2022-12-20T02:24:48.188Z,0.80
2022-12-20T02:25:38.175Z,0.80
2022-12-20T02:26:28.176Z,0.81
2022-12-20T02:27:18.165Z,0.80
2022-12-20T02:28:08.154Z,0.82
2022-12-20T02:28:58.144Z,0.81
2022-12-20T02:29:48.153Z,0.81
2022-12-20T02:30:38.130Z,0.84
2022-12-20T02:31:28.163Z,0.84
2022-12-20T02:32:18.224Z,0.84
2022-12-20T02:33:08.104Z,0.84
2022-12-20T02:33:58.116Z,0.86
2022-12-20T02:34:48.091Z,0.86
2022-12-20T02:35:38.075Z,0.84
2022-12-20T02:36:28.086Z,0.82
2022-12-20T02:37:18.053Z,0.81
2022-12-20T02:38:08.048Z,0.82
2022-12-20T02:38:58.041Z,0.84
2022-12-20T02:39:48.049Z,0.82
2022-12-20T02:40:38.018Z,0.82
2022-12-20T02:41:28.010Z,0.82
2022-12-20T02:42:18.001Z,0.84
2022-12-20T02:43:08.003Z,0.86
2022-12-20T02:43:57.991Z,0.86
2022-12-20T02:44:47.984Z,0.86
2022-12-20T02:45:37.998Z,0.88
2022-12-20T02:46:28.090Z,0.86
2022-12-20T02:47:17.938Z,0.86
2022-12-20T02:48:07.962Z,0.84
2022-12-20T02:48:57.920Z,0.84
2022-12-20T02:49:47.939Z,0.84
2022-12-20T02:50:37.906Z,0.82
2022-12-20T02:51:27.899Z,0.82
2022-12-20T02:52:17.905Z,0.82
2022-12-20T02:53:07.886Z,0.82
2022-12-20T02:53:57.892Z,0.82
2022-12-20T02:54:47.859Z,0.84
2022-12-20T02:55:37.847Z,0.82
2022-12-20T02:56:27.857Z,0.81
2022-12-20T02:57:17.825Z,0.84
2022-12-20T02:58:07.828Z,0.82
2022-12-20T02:58:57.814Z,0.84
2022-12-20T02:59:47.825Z,0.86
2022-12-20T03:00:37.785Z,0.82
2022-12-20T03:01:27.917Z,0.80
2022-12-20T03:02:17.969Z,0.82
2022-12-20T03:03:07.883Z,0.82
2022-12-20T03:03:57.769Z,0.84
2022-12-20T03:04:47.765Z,0.84
2022-12-20T03:05:37.736Z,0.82
2022-12-20T03:06:27.734Z,0.84
2022-12-20T03:07:17.737Z,0.84
2022-12-20T03:08:07.715Z,0.82
2022-12-20T03:08:57.708Z,0.86
2022-12-20T03:09:47.703Z,0.86
2022-12-20T03:10:37.699Z,0.88
2022-12-20T03:11:27.683Z,0.88
2022-12-20T03:12:17.686Z,0.89
2022-12-20T03:13:07.667Z,0.90
2022-12-20T03:13:57.659Z,0.89
2022-12-20T03:14:47.668Z,0.92
2022-12-20T03:15:37.658Z,0.93
2022-12-20T03:16:27.647Z,0.93
2022-12-20T03:17:17.691Z,0.95
2022-12-20T03:18:07.606Z,0.95
2022-12-20T03:18:57.590Z,0.95
2022-12-20T03:19:47.605Z,0.95
2022-12-20T03:20:37.573Z,0.96
2022-12-20T03:21:27.573Z,0.98
2022-12-20T03:22:17.548Z,0.96
2022-12-20T03:23:07.541Z,0.95
2022-12-20T03:23:57.537Z,0.95
2022-12-20T03:24:47.549Z,0.95
2022-12-20T03:25:37.520Z,0.95
2022-12-20T03:26:27.544Z,0.93
2022-12-20T03:27:17.516Z,0.92
2022-12-20T03:28:07.517Z,0.95
2022-12-20T03:28:57.491Z,0.95
2022-12-20T03:29:47.501Z,0.93
2022-12-20T03:30:37.501Z,0.95
2022-12-20T03:31:27.527Z,0.93
2022-12-20T03:32:17.458Z,0.95
2022-12-20T03:33:07.437Z,0.96
2022-12-20T03:33:57.428Z,0.95
2022-12-20T03:34:47.437Z,0.95
2022-12-20T03:35:37.404Z,0.93
2022-12-20T03:36:27.421Z,0.95
2022-12-20T03:37:17.397Z,0.96
2022-12-20T03:38:07.384Z,1.00
2022-12-20T03:38:57.366Z,1.02
2022-12-20T03:39:47.389Z,1.02
2022-12-20T03:40:37.353Z,1.02
2022-12-20T03:41:27.394Z,1.00
2022-12-20T03:42:17.340Z,1.02
2022-12-20T03:43:07.337Z,0.99
2022-12-20T03:43:57.315Z,0.98
2022-12-20T03:44:47.379Z,0.98
2022-12-20T03:45:37.296Z,0.95
2022-12-20T03:46:27.346Z,0.96
2022-12-20T03:47:17.291Z,0.98
2022-12-20T03:48:07.276Z,0.96
2022-12-20T03:48:57.263Z,0.98
2022-12-20T03:49:47.272Z,0.98
2022-12-20T03:50:37.333Z,0.98
2022-12-20T03:51:27.239Z,1.00
2022-12-20T03:52:17.228Z,1.00
2022-12-20T03:53:07.221Z,1.02
2022-12-20T03:53:57.217Z,1.00
2022-12-20T03:54:47.215Z,1.00
2022-12-20T03:55:37.187Z,1.02
2022-12-20T03:56:27.195Z,1.00
2022-12-20T03:57:17.171Z,1.02
2022-12-20T03:58:07.164Z,1.04
2022-12-20T03:58:57.167Z,1.04
2022-12-20T03:59:47.161Z,1.02
2022-12-20T04:00:37.137Z,1.04
2022-12-20T04:01:27.222Z,1.06
2022-12-20T04:02:17.272Z,1.06
2022-12-20T04:03:07.199Z,1.06
2022-12-20T04:03:57.239Z,1.06
2022-12-20T04:04:47.101Z,1.02
2022-12-20T04:05:37.081Z,1.02
2022-12-20T04:06:27.072Z,1.00
2022-12-20T04:07:17.068Z,0.98
2022-12-20T04:08:07.056Z,0.96
2022-12-20T04:08:57.034Z,0.96
2022-12-20T04:09:47.056Z,0.95
2022-12-20T04:10:37.037Z,0.95
2022-12-20T04:11:27.010Z,0.96
2022-12-20T04:12:17.012Z,0.95
2022-12-20T04:13:07.015Z,0.93
2022-12-20T04:13:56.981Z,0.96
2022-12-20T04:14:47.002Z,0.95
2022-12-20T04:15:36.982Z,0.96
2022-12-20T04:16:27.027Z,0.96
2022-12-20T04:17:16.959Z,0.98
2022-12-20T04:18:06.939Z,0.98
2022-12-20T04:18:56.936Z,0.98
2022-12-20T04:19:46.941Z,0.96
2022-12-20T04:20:36.925Z,0.98
2022-12-20T04:21:26.899Z,0.98
2022-12-20T04:22:16.889Z,0.98
2022-12-20T04:23:06.891Z,0.99
2022-12-20T04:23:56.885Z,0.98
2022-12-20T04:24:46.890Z,1.00
2022-12-20T04:25:36.860Z,1.00
2022-12-20T04:26:26.885Z,1.00
2022-12-20T04:27:16.842Z,0.99
2022-12-20T04:28:06.857Z,0.99
2022-12-20T04:28:56.829Z,1.00
2022-12-20T04:29:46.817Z,1.00
2022-12-20T04:30:36.807Z,1.02
2022-12-20T04:31:26.911Z,1.02
2022-12-20T04:32:16.787Z,1.02
2022-12-20T04:33:06.787Z,1.00
2022-12-20T04:33:56.765Z,1.00
2022-12-20T04:34:46.788Z,1.04
2022-12-20T04:35:36.746Z,1.02
2022-12-20T04:36:26.762Z,1.00
2022-12-20T04:37:16.731Z,0.99
2022-12-20T04:38:06.736Z,1.00
2022-12-20T04:38:56.717Z,1.04
2022-12-20T04:39:46.733Z,1.04
2022-12-20T04:40:36.689Z,1.04
2022-12-20T04:41:26.691Z,1.06
2022-12-20T04:42:16.664Z,1.04
2022-12-20T04:43:06.673Z,1.07
2022-12-20T04:43:56.664Z,1.07
2022-12-20T04:44:46.663Z,1.07
2022-12-20T04:45:36.632Z,1.08
2022-12-20T04:46:26.694Z,1.07
2022-12-20T04:47:16.619Z,1.04
2022-12-20T04:48:37.073Z,1.04
2022-12-20T04:48:59.288Z,1.06
2022-12-20T04:49:46.612Z,1.06
2022-12-20T04:50:36.584Z,1.04
2022-12-20T04:51:26.579Z,1.02
2022-12-20T04:52:16.560Z,1.02
2022-12-20T04:53:06.571Z,1.02
2022-12-20T04:53:56.560Z,1.04
2022-12-20T04:54:46.552Z,1.04
2022-12-20T04:55:36.542Z,1.04
2022-12-20T04:56:26.524Z,1.04
2022-12-20T04:57:16.513Z,1.04
2022-12-20T04:58:07.902Z,1.06
2022-12-20T04:58:56.487Z,1.04
2022-12-20T04:59:46.481Z,1.07
2022-12-20T05:00:40.401Z,1.06
2022-12-20T05:01:26.683Z,1.06
2022-12-20T05:02:16.540Z,1.06
2022-12-20T05:03:06.771Z,1.06
2022-12-20T05:03:56.506Z,1.04
2022-12-20T05:04:46.429Z,1.06
2022-12-20T05:05:36.431Z,1.02
2022-12-20T05:06:26.410Z,1.04
2022-12-20T05:07:16.390Z,1.04
2022-12-20T05:08:06.425Z,1.02
2022-12-20T05:08:56.368Z,1.04
2022-12-20T05:09:46.378Z,1.07
2022-12-20T05:10:36.382Z,1.07
2022-12-20T05:11:26.359Z,1.06
2022-12-20T05:12:16.350Z,1.07
2022-12-20T05:13:09.377Z,1.06
2022-12-20T05:13:56.324Z,1.06
2022-12-20T05:14:46.319Z,1.02
2022-12-20T05:15:36.340Z,1.00
2022-12-20T05:16:26.437Z,0.99
2022-12-20T05:17:16.292Z,0.96
2022-12-20T05:18:06.287Z,0.95
2022-12-20T05:18:56.288Z,0.95
2022-12-20T05:19:46.256Z,0.93
2022-12-20T05:20:36.265Z,0.95
2022-12-20T05:21:26.240Z,0.93
2022-12-20T05:22:16.231Z,0.96
2022-12-20T05:23:06.225Z,0.96
2022-12-20T05:23:56.231Z,0.96
2022-12-20T05:24:46.213Z,0.98
2022-12-20T05:25:36.213Z,1.00
2022-12-20T05:26:26.184Z,1.02
2022-12-20T05:27:16.172Z,1.04
2022-12-20T05:28:06.164Z,1.04
2022-12-20T05:28:56.155Z,1.06
2022-12-20T05:29:46.153Z,1.07
2022-12-20T05:30:36.158Z,1.07
2022-12-20T05:31:26.208Z,1.07
2022-12-20T05:32:16.125Z,1.07
2022-12-20T05:33:06.115Z,1.07
2022-12-20T05:33:56.097Z,1.07
2022-12-20T05:34:46.105Z,1.02
2022-12-20T05:35:36.094Z,1.02
2022-12-20T05:36:26.089Z,1.02
2022-12-20T05:37:16.075Z,1.04
2022-12-20T05:38:06.120Z,1.04
2022-12-20T05:39:03.378Z,1.06
2022-12-20T05:39:47.041Z,1.06
2022-12-20T05:40:36.041Z,1.06
2022-12-20T05:41:26.021Z,1.08
2022-12-20T05:42:16.001Z,1.08
2022-12-20T05:43:06.004Z,1.08
2022-12-20T05:43:56.004Z,1.06
2022-12-20T05:44:45.979Z,1.04
2022-12-20T05:45:35.980Z,1.04
2022-12-20T05:46:26.015Z,1.02
2022-12-20T05:47:15.949Z,0.99
2022-12-20T05:48:05.960Z,1.00
2022-12-20T05:48:55.959Z,1.00
2022-12-20T05:49:45.930Z,1.00
2022-12-20T05:50:35.965Z,1.00
2022-12-20T05:51:25.919Z,0.99
2022-12-20T05:52:15.905Z,1.02
2022-12-20T05:53:11.228Z,1.02
2022-12-20T05:53:56.887Z,1.00
2022-12-20T05:54:45.879Z,1.02
2022-12-20T05:55:35.893Z,0.99
2022-12-20T05:56:25.851Z,1.02
2022-12-20T05:57:15.882Z,1.02
2022-12-20T05:58:05.829Z,1.02
2022-12-20T05:58:55.843Z,1.02
2022-12-20T05:59:45.828Z,1.06
2022-12-20T06:00:35.818Z,1.06
2022-12-20T06:01:25.880Z,1.07
2022-12-20T06:02:15.896Z,1.00
2022-12-20T06:03:05.977Z,1.00
2022-12-20T06:03:55.953Z,1.00
2022-12-20T06:04:45.782Z,1.02
2022-12-20T06:05:35.767Z,1.06
2022-12-20T06:06:25.770Z,1.02
2022-12-20T06:07:15.746Z,1.04
2022-12-20T06:08:05.726Z,1.02
2022-12-20T06:08:55.724Z,1.00
2022-12-20T06:09:45.697Z,1.06
2022-12-20T06:10:35.715Z,1.06
2022-12-20T06:11:29.871Z,1.08
2022-12-20T06:12:15.692Z,1.08
2022-12-20T06:13:05.665Z,1.07
2022-12-20T06:13:55.669Z,1.08
2022-12-20T06:14:45.651Z,1.11
2022-12-20T06:15:35.659Z,1.10
2022-12-20T06:16:25.701Z,1.11
2022-12-20T06:17:15.624Z,1.11
2022-12-20T06:18:05.618Z,1.13
2022-12-20T06:18:55.610Z,1.10
2022-12-20T06:19:45.605Z,1.10
2022-12-20T06:20:35.605Z,1.10
2022-12-20T06:21:25.577Z,1.10
2022-12-20T06:22:15.597Z,1.08
2022-12-20T06:23:05.551Z,1.08
2022-12-20T06:23:55.551Z,1.06
2022-12-20T06:24:48.564Z,1.02
2022-12-20T06:25:35.584Z,1.00
2022-12-20T06:26:25.536Z,1.06
2022-12-20T06:27:15.542Z,1.08
2022-12-20T06:28:05.502Z,1.08
2022-12-20T06:28:55.515Z,1.13
2022-12-20T06:29:45.513Z,1.13
2022-12-20T06:30:35.488Z,1.10
2022-12-20T06:31:25.509Z,1.10
2022-12-20T06:32:15.461Z,1.08
2022-12-20T06:33:05.532Z,1.07
2022-12-20T06:33:55.438Z,1.08
2022-12-20T06:34:45.432Z,1.07
2022-12-20T06:35:35.452Z,1.04
2022-12-20T06:36:25.407Z,1.02
2022-12-20T06:37:15.402Z,1.00
2022-12-20T06:38:05.399Z,1.00
2022-12-20T06:38:55.389Z,1.02
2022-12-20T06:39:45.396Z,0.99
2022-12-20T06:40:35.393Z,0.99
2022-12-20T06:41:25.371Z,0.99
2022-12-20T06:42:15.348Z,0.99
2022-12-20T06:43:05.340Z,0.99
2022-12-20T06:43:55.338Z,0.98
2022-12-20T06:44:45.328Z,0.96
2022-12-20T06:45:41.281Z,0.96
2022-12-20T06:46:26.345Z,0.96
2022-12-20T06:47:15.318Z,0.98
2022-12-20T06:48:05.277Z,0.98
2022-12-20T06:48:55.281Z,0.96
2022-12-20T06:49:45.259Z,0.96
2022-12-20T06:50:35.271Z,0.96
2022-12-20T06:51:25.246Z,0.96
2022-12-20T06:52:15.239Z,0.98
2022-12-20T06:53:05.227Z,0.99
2022-12-20T06:53:55.246Z,0.99
2022-12-20T06:54:45.210Z,0.98
2022-12-20T06:55:35.227Z,0.95
2022-12-20T06:56:25.184Z,0.95
2022-12-20T06:57:15.190Z,0.95
2022-12-20T06:58:05.164Z,0.93
2022-12-20T06:58:55.164Z,0.93
2022-12-20T06:59:45.157Z,0.96
2022-12-20T07:00:35.162Z,0.96
2022-12-20T07:01:25.296Z,0.95
2022-12-20T07:02:15.340Z,0.98
2022-12-20T07:03:05.248Z,0.98
2022-12-20T07:03:55.172Z,0.99
2022-12-20T07:04:45.113Z,1.02
2022-12-20T07:05:35.111Z,1.02
2022-12-20T07:06:25.084Z,1.02
2022-12-20T07:07:15.068Z,1.04
2022-12-20T07:08:05.068Z,1.04
2022-12-20T07:08:55.054Z,1.06
2022-12-20T07:09:45.053Z,1.07
2022-12-20T07:10:35.053Z,1.07
2022-12-20T07:11:25.022Z,1.08
2022-12-20T07:12:15.021Z,1.08
2022-12-20T07:13:05.001Z,1.08
2022-12-20T07:13:54.991Z,1.11
2022-12-20T07:14:44.983Z,1.10
2022-12-20T07:15:35.001Z,1.10
2022-12-20T07:16:24.987Z,1.10
2022-12-20T07:17:14.959Z,1.10
2022-12-20T07:18:04.951Z,1.10
2022-12-20T07:18:54.965Z,1.11
2022-12-20T07:19:50.504Z,1.14
2022-12-20T07:20:35.942Z,1.13
2022-12-20T07:21:24.916Z,1.14
2022-12-20T07:22:14.908Z,1.13
2022-12-20T07:23:04.887Z,1.14
2022-12-20T07:23:54.911Z,1.14
2022-12-20T07:24:44.881Z,1.14
2022-12-20T07:25:34.884Z,1.13
2022-12-20T07:26:24.905Z,1.14
2022-12-20T07:27:14.907Z,1.14
2022-12-20T07:28:04.836Z,1.14
2022-12-20T07:28:54.829Z,1.14
2022-12-20T07:29:44.827Z,1.16
2022-12-20T07:30:34.836Z,1.17
2022-12-20T07:31:24.855Z,1.16
2022-12-20T07:32:14.836Z,1.14
2022-12-20T07:33:04.786Z,1.16
2022-12-20T07:33:54.808Z,1.14
2022-12-20T07:34:44.761Z,1.14
2022-12-20T07:35:34.818Z,1.14
2022-12-20T07:36:24.745Z,1.13
2022-12-20T07:37:14.744Z,1.11
2022-12-20T07:38:04.745Z,1.11
2022-12-20T07:38:54.725Z,1.13
2022-12-20T07:39:44.713Z,1.13
2022-12-20T07:40:34.717Z,1.11
2022-12-20T07:41:24.695Z,1.11
2022-12-20T07:42:14.946Z,1.13
2022-12-20T07:43:04.680Z,1.11
2022-12-20T07:43:54.671Z,1.13
2022-12-20T07:44:44.668Z,1.14
2022-12-20T07:45:34.763Z,1.16
2022-12-20T07:46:24.693Z,1.17
2022-12-20T07:47:14.639Z,1.17
2022-12-20T07:48:10.283Z,1.18
2022-12-20T07:48:55.622Z,1.20
2022-12-20T07:49:44.592Z,1.20
2022-12-20T07:50:34.631Z,1.21
2022-12-20T07:51:24.577Z,1.25
2022-12-20T07:52:14.579Z,1.25
2022-12-20T07:53:04.595Z,1.25
2022-12-20T07:53:54.556Z,1.25
2022-12-20T07:54:44.541Z,1.26
2022-12-20T07:55:34.663Z,1.25
2022-12-20T07:56:24.521Z,1.25
2022-12-20T07:57:14.519Z,1.25
2022-12-20T07:58:04.526Z,1.26
2022-12-20T07:58:54.502Z,1.25
2022-12-20T07:59:44.495Z,1.25
2022-12-20T08:00:34.498Z,1.21
2022-12-20T08:01:24.535Z,1.20
2022-12-20T08:02:14.714Z,1.18
2022-12-20T08:03:04.558Z,1.18
2022-12-20T08:03:54.490Z,1.16
2022-12-20T08:04:44.440Z,1.16
2022-12-20T08:05:34.448Z,1.17
2022-12-20T08:06:24.418Z,1.18
2022-12-20T08:07:14.423Z,1.17
2022-12-20T08:08:04.389Z,1.18
2022-12-20T08:08:54.398Z,1.18
2022-12-20T08:09:44.400Z,1.20
2022-12-20T08:10:34.389Z,1.18
2022-12-20T08:11:24.369Z,1.17
2022-12-20T08:12:14.352Z,1.20
2022-12-20T08:13:04.349Z,1.18
2022-12-20T08:13:58.037Z,1.17
2022-12-20T08:14:44.337Z,1.18
2022-12-20T08:15:34.326Z,1.24
2022-12-20T08:16:24.337Z,1.24
2022-12-20T08:17:14.347Z,1.26
2022-12-20T08:18:04.278Z,1.28
2022-12-20T08:18:54.277Z,1.29
2022-12-20T08:19:44.259Z,1.29
2022-12-20T08:20:34.264Z,1.31
2022-12-20T08:21:24.276Z,1.32
2022-12-20T08:22:14.253Z,1.32
2022-12-20T08:23:04.241Z,1.36
2022-12-20T08:23:54.236Z,1.34
2022-12-20T08:24:44.206Z,1.35
2022-12-20T08:25:40.967Z,1.38
2022-12-20T08:26:25.183Z,1.38
2022-12-20T08:27:14.185Z,1.39
2022-12-20T08:28:04.171Z,1.42
2022-12-20T08:28:54.186Z,1.42
2022-12-20T08:29:44.154Z,1.43
2022-12-20T08:30:34.177Z,1.44
2022-12-20T08:31:24.192Z,1.46
2022-12-20T08:32:14.159Z,1.44
2022-12-20T08:33:04.118Z,1.43
2022-12-20T08:33:54.125Z,1.44
2022-12-20T08:34:44.124Z,1.44
2022-12-20T08:35:34.116Z,1.46
2022-12-20T08:36:24.091Z,1.46
2022-12-20T08:37:15.264Z,1.47
2022-12-20T08:38:04.066Z,1.49
2022-12-20T08:38:54.056Z,1.49
2022-12-20T08:39:44.042Z,1.52
2022-12-20T08:40:34.074Z,1.52
2022-12-20T08:41:24.019Z,1.53
2022-12-20T08:42:14.027Z,1.53
2022-12-20T08:43:09.992Z,1.50
2022-12-20T08:43:55.002Z,1.50
2022-12-20T08:44:43.986Z,1.47
2022-12-20T08:45:34.001Z,1.47
2022-12-20T08:46:24.011Z,1.47
2022-12-20T08:47:13.961Z,1.47
2022-12-20T08:48:03.947Z,1.49
2022-12-20T08:48:53.942Z,1.50
2022-12-20T08:49:47.665Z,1.50
2022-12-20T08:50:33.939Z,1.47
2022-12-20T08:51:24.029Z,1.47
2022-12-20T08:52:13.920Z,1.49
2022-12-20T08:53:03.925Z,1.50
2022-12-20T08:53:53.896Z,1.54
2022-12-20T08:54:43.880Z,1.53
2022-12-20T08:55:33.909Z,1.56
2022-12-20T08:56:23.864Z,1.57
2022-12-20T08:57:13.860Z,1.61
2022-12-20T08:58:03.853Z,1.61
2022-12-20T08:58:53.857Z,1.65
2022-12-20T08:59:43.818Z,1.65
2022-12-20T09:00:33.921Z,1.68
2022-12-20T09:01:23.921Z,1.68
2022-12-20T09:02:14.048Z,1.71
2022-12-20T09:03:04.127Z,1.71
2022-12-20T09:03:53.864Z,1.68
2022-12-20T09:04:43.766Z,1.67
2022-12-20T09:05:33.775Z,1.65
2022-12-20T09:06:23.748Z,1.65
2022-12-20T09:07:13.744Z,1.65
2022-12-20T09:08:03.727Z,1.67
2022-12-20T09:08:53.726Z,1.67
2022-12-20T09:09:43.706Z,1.68
2022-12-20T09:10:33.725Z,1.70
2022-12-20T09:11:23.713Z,1.71
2022-12-20T09:12:13.683Z,1.75
2022-12-20T09:13:03.682Z,1.77
2022-12-20T09:13:53.673Z,1.81
2022-12-20T09:14:43.655Z,1.81
2022-12-20T09:15:33.710Z,1.82
2022-12-20T09:16:23.686Z,1.85
2022-12-20T09:17:13.649Z,1.86
2022-12-20T09:18:03.621Z,1.88
2022-12-20T09:18:55.645Z,1.90
2022-12-20T09:19:44.609Z,1.92
2022-12-20T09:20:33.615Z,1.93
2022-12-20T09:21:23.586Z,1.95
2022-12-20T09:22:13.583Z,1.98
2022-12-20T09:23:03.588Z,2.01
2022-12-20T09:23:53.555Z,2.04
2022-12-20T09:24:43.576Z,2.08
2022-12-20T09:25:33.552Z,2.07
2022-12-20T09:26:23.553Z,2.07
2022-12-20T09:27:13.551Z,2.08
2022-12-20T09:28:03.537Z,2.07
2022-12-20T09:28:53.502Z,2.09
2022-12-20T09:29:43.533Z,2.09
2022-12-20T09:30:33.490Z,2.08
2022-12-20T09:31:23.519Z,2.08
2022-12-20T09:32:13.467Z,2.11
2022-12-20T09:33:09.553Z,2.12
2022-12-20T09:33:54.441Z,2.14
2022-12-20T09:34:43.441Z,2.15
2022-12-20T09:35:33.436Z,2.22
2022-12-20T09:36:23.443Z,2.23
2022-12-20T09:37:13.418Z,2.23
2022-12-20T09:38:03.416Z,2.25
2022-12-20T09:38:53.396Z,2.29
2022-12-20T09:39:43.388Z,2.29
2022-12-20T09:40:33.369Z,2.30
2022-12-20T09:41:23.408Z,2.36
2022-12-20T09:42:13.364Z,2.33
2022-12-20T09:43:03.348Z,2.32
2022-12-20T09:44:00.348Z,2.30
2022-12-20T09:45:34.046Z,2.32
2022-12-20T09:45:44.346Z,2.36
2022-12-20T09:46:28.737Z,2.37
2022-12-20T09:47:18.746Z,2.38
2022-12-20T09:48:08.687Z,2.38
2022-12-20T09:48:58.675Z,2.38
2022-12-20T09:49:48.672Z,2.40
2022-12-20T09:50:38.689Z,2.40
2022-12-20T09:51:28.690Z,2.43
2022-12-20T09:52:18.631Z,2.45
2022-12-20T09:53:11.148Z,2.44
2022-12-20T09:53:59.647Z,2.44
2022-12-20T09:54:48.631Z,2.44
2022-12-20T09:55:38.600Z,2.45
2022-12-20T09:56:28.620Z,2.45
2022-12-20T09:57:19.859Z,2.44
2022-12-20T09:58:08.598Z,2.45
2022-12-20T09:58:58.564Z,2.45
2022-12-20T09:59:50.031Z,2.44
2022-12-20T10:00:38.551Z,2.41
2022-12-20T10:01:34.413Z,2.40
2022-12-20T10:02:55.299Z,2.43
2022-12-20T10:03:10.960Z,2.45
2022-12-20T10:03:58.665Z,2.44
2022-12-20T10:04:48.724Z,2.44
2022-12-20T10:05:41.446Z,2.47
2022-12-20T10:06:28.485Z,2.48
2022-12-20T10:07:18.490Z,2.51
2022-12-20T10:08:08.750Z,2.51
2022-12-20T10:08:58.481Z,2.50
2022-12-20T10:09:48.451Z,2.53
2022-12-20T10:10:38.438Z,2.51
2022-12-20T10:11:32.989Z,2.50
2022-12-20T10:12:21.706Z,2.48
2022-12-20T10:13:08.439Z,2.48
2022-12-20T10:13:58.397Z,2.47
2022-12-20T10:14:48.425Z,2.44
2022-12-20T10:15:38.424Z,2.45
2022-12-20T10:16:28.446Z,2.43
2022-12-20T10:17:20.737Z,2.43
2022-12-20T10:18:08.348Z,2.44
2022-12-20T10:18:58.337Z,2.47
2022-12-20T10:19:48.365Z,2.47
2022-12-20T10:20:38.324Z,2.44
2022-12-20T10:21:28.327Z,2.45
2022-12-20T10:22:18.368Z,2.45
2022-12-20T10:23:08.323Z,2.47
2022-12-20T10:23:58.287Z,2.47
2022-12-20T10:24:48.305Z,2.48
2022-12-20T10:25:38.264Z,2.51
2022-12-20T10:26:28.269Z,2.58
2022-12-20T10:27:19.672Z,2.59
2022-12-20T10:28:08.243Z,2.62
2022-12-20T10:28:58.253Z,2.59
2022-12-20T10:29:48.257Z,2.59
2022-12-20T10:30:39.669Z,2.61
2022-12-20T10:31:28.308Z,2.63
2022-12-20T10:32:18.194Z,2.62
2022-12-20T10:33:08.196Z,2.61
2022-12-20T10:33:58.201Z,2.58
2022-12-20T10:34:48.751Z,2.58
2022-12-20T10:35:38.149Z,2.58
2022-12-20T10:36:28.163Z,2.58
2022-12-20T10:37:18.151Z,2.58
2022-12-20T10:38:09.789Z,2.56
2022-12-20T10:38:58.115Z,2.55
2022-12-20T10:39:48.122Z,2.59
2022-12-20T10:41:09.997Z,2.61
2022-12-20T10:41:29.101Z,2.62
2022-12-20T10:42:18.104Z,2.63
2022-12-20T10:43:08.084Z,2.63
2022-12-20T10:43:58.109Z,2.68
2022-12-20T10:44:48.069Z,2.71
2022-12-20T10:45:38.061Z,2.74
2022-12-20T10:46:28.095Z,2.77
2022-12-20T10:47:18.030Z,2.79
2022-12-20T10:48:08.597Z,2.79
2022-12-20T10:48:58.020Z,2.76
2022-12-20T10:49:48.248Z,2.77
2022-12-20T10:50:37.999Z,2.76
2022-12-20T10:51:27.982Z,2.76
2022-12-20T10:52:17.969Z,2.76
2022-12-20T10:53:07.983Z,2.79
2022-12-20T10:53:57.965Z,2.79
2022-12-20T10:54:47.957Z,2.79
2022-12-20T10:55:40.392Z,2.77
2022-12-20T10:56:27.950Z,2.77
2022-12-20T10:57:17.921Z,2.79
2022-12-20T10:58:07.929Z,2.79
2022-12-20T10:58:57.888Z,2.80
2022-12-20T10:59:47.895Z,2.77
2022-12-20T11:00:40.207Z,2.77
2022-12-20T11:01:27.964Z,2.77
2022-12-20T11:02:18.029Z,2.76
2022-12-20T11:03:08.206Z,2.77
2022-12-20T11:03:57.904Z,2.79
2022-12-20T11:04:47.858Z,2.79
2022-12-20T11:05:37.846Z,2.80